createdAt,value
2019-04-25T00:01:54.139Z,24.43
2019-04-25T00:04:23.114Z,31.63
2019-04-25T00:06:52.183Z,33.17
2019-04-25T00:09:22.584Z,31.37
2019-04-25T00:11:52.252Z,31.20
2019-04-25T00:14:22.612Z,27.90
2019-04-25T00:16:52.116Z,35.40
2019-04-25T00:19:21.871Z,34.53
2019-04-25T00:22:07.310Z,32.47
2019-04-25T00:24:46.270Z,39.37
2019-04-25T00:27:14.916Z,35.87
2019-04-25T00:29:44.986Z,37.80
2019-04-25T00:32:14.033Z,39.33
2019-04-25T00:34:43.533Z,45.10
2019-04-25T00:37:13.995Z,42.63
2019-04-25T00:39:43.920Z,44.23
2019-04-25T00:42:13.228Z,40.13
2019-04-25T00:44:44.533Z,39.20
2019-04-25T00:47:12.263Z,34.13
2019-04-25T00:49:43.045Z,41.20
2019-04-25T00:52:11.700Z,43.70
2019-04-25T00:54:41.432Z,39.13
2019-04-25T00:57:12.109Z,41.60
2019-04-25T00:59:43.950Z,39.10
2019-04-25T01:02:14.485Z,39.37
2019-04-25T01:04:43.884Z,32.83
2019-04-25T01:07:12.725Z,39.07
2019-04-25T01:09:42.330Z,43.70
2019-04-25T01:12:12.363Z,41.43
2019-04-25T01:14:41.995Z,41.93
2019-04-25T01:17:11.665Z,38.33
2019-04-25T01:19:40.308Z,41.47
2019-04-25T01:22:09.609Z,38.17
2019-04-25T01:24:38.234Z,46.73
2019-04-25T01:27:07.386Z,39.53
2019-04-25T01:29:38.591Z,39.77
2019-04-25T01:32:08.898Z,48.73
2019-04-25T01:34:42.182Z,40.93
2019-04-25T01:37:28.500Z,50.53
2019-04-25T01:40:14.964Z,42.57
2019-04-25T01:43:01.702Z,54.00
2019-04-25T01:45:33.835Z,47.23
2019-04-25T01:48:03.505Z,47.70
2019-04-25T01:50:33.230Z,48.43
2019-04-25T01:53:03.383Z,47.57
2019-04-25T01:55:33.571Z,52.03
2019-04-25T01:58:03.910Z,53.20
2019-04-25T02:00:44.853Z,55.57
2019-04-25T02:03:17.259Z,59.37
2019-04-25T02:05:45.858Z,58.67
2019-04-25T02:08:14.406Z,64.40
2019-04-25T02:10:44.683Z,54.63
2019-04-25T02:13:20.734Z,48.20
2019-04-25T02:15:49.498Z,50.57
2019-04-25T02:18:18.175Z,51.57
2019-04-25T02:20:46.798Z,86.00
2019-04-25T02:23:18.139Z,72.70
2019-04-25T02:25:46.767Z,78.37
2019-04-25T02:28:15.873Z,76.97
2019-04-25T02:30:45.437Z,70.17
2019-04-25T02:33:14.337Z,65.43
2019-04-25T02:35:46.317Z,65.23
2019-04-25T02:38:16.576Z,70.57
2019-04-25T02:40:45.373Z,72.00
2019-04-25T02:43:14.341Z,70.30
2019-04-25T02:46:00.604Z,65.03
2019-04-25T02:48:34.168Z,61.20
2019-04-25T02:51:05.711Z,58.83
2019-04-25T02:53:37.367Z,60.87
2019-04-25T02:56:25.756Z,62.40
2019-04-25T02:58:36.712Z,75.83
2019-04-25T03:01:18.056Z,90.73
2019-04-25T03:03:38.487Z,117.37
2019-04-25T03:06:09.290Z,121.60
2019-04-25T03:08:37.762Z,99.73
2019-04-25T03:11:07.943Z,114.67
2019-04-25T03:13:36.822Z,127.30
2019-04-25T03:16:08.953Z,149.40
2019-04-25T03:18:37.674Z,197.53
2019-04-25T03:21:17.267Z,225.87
2019-04-25T03:23:46.390Z,188.93
2019-04-25T03:26:15.149Z,185.97
2019-04-25T03:28:43.952Z,240.07
2019-04-25T03:31:18.623Z,350.77
2019-04-25T03:33:45.933Z,425.40
2019-04-25T03:36:13.982Z,340.43
2019-04-25T03:38:44.218Z,307.27
2019-04-25T03:41:14.659Z,366.60
2019-04-25T03:43:44.234Z,289.10
2019-04-25T03:46:14.299Z,191.67
2019-04-25T03:48:44.065Z,178.43
2019-04-25T03:51:15.425Z,167.27
2019-04-25T03:53:43.781Z,155.90
2019-04-25T03:56:14.495Z,149.40
2019-04-25T03:58:43.937Z,122.30
2019-04-25T04:01:13.837Z,114.50
2019-04-25T04:03:44.026Z,111.07
2019-04-25T04:06:15.306Z,109.40
2019-04-25T04:08:44.298Z,105.77
2019-04-25T04:11:14.590Z,91.13
2019-04-25T04:13:44.023Z,85.37
2019-04-25T04:16:15.612Z,77.50
2019-04-25T04:18:45.871Z,71.87
2019-04-25T04:21:33.748Z,77.47
2019-04-25T04:24:04.138Z,74.67
2019-04-25T04:26:33.194Z,70.67
2019-04-25T04:29:03.070Z,59.27
2019-04-25T04:31:33.479Z,59.63
2019-04-25T04:34:03.663Z,51.97
2019-04-25T04:36:33.838Z,59.37
2019-04-25T04:39:03.880Z,56.70
2019-04-25T04:41:33.807Z,49.80
2019-04-25T04:44:04.008Z,49.03
2019-04-25T04:46:34.028Z,39.03
2019-04-25T04:49:03.911Z,42.07
2019-04-25T04:51:33.615Z,37.90
2019-04-25T04:54:03.431Z,44.37
2019-04-25T04:56:34.045Z,41.60
2019-04-25T04:59:03.681Z,40.00
2019-04-25T05:01:33.905Z,35.17
2019-04-25T05:04:04.251Z,32.37
2019-04-25T05:06:49.751Z,34.30
2019-04-25T05:09:20.107Z,29.70
2019-04-25T05:11:48.876Z,31.03
2019-04-25T05:14:20.599Z,35.40
2019-04-25T05:16:53.270Z,30.83
2019-04-25T05:19:23.935Z,30.83
2019-04-25T05:21:53.734Z,34.87
2019-04-25T05:24:24.584Z,44.47
2019-04-25T05:26:54.013Z,30.07
2019-04-25T05:29:24.130Z,31.33
2019-04-25T05:31:54.281Z,40.23
2019-04-25T05:34:25.647Z,36.43
2019-04-25T05:36:53.884Z,25.43
2019-04-25T05:39:25.123Z,28.97
2019-04-25T05:41:54.760Z,28.33
2019-04-25T05:44:26.407Z,24.23
2019-04-25T05:46:56.742Z,28.97
2019-04-25T05:49:26.308Z,26.20
2019-04-25T05:51:55.280Z,23.10
2019-04-25T05:54:24.797Z,25.47
2019-04-25T05:56:54.327Z,23.83
2019-04-25T05:59:25.534Z,27.90
2019-04-25T06:01:54.223Z,26.13
2019-04-25T06:04:29.138Z,26.93
2019-04-25T06:06:59.872Z,31.27
2019-04-25T06:09:38.118Z,26.07
2019-04-25T06:12:19.847Z,26.57
2019-04-25T06:14:44.406Z,31.77
2019-04-25T06:17:14.914Z,23.87
2019-04-25T06:19:50.035Z,38.97
2019-04-25T06:22:20.910Z,24.90
2019-04-25T06:24:55.572Z,24.30
2019-04-25T06:27:27.094Z,21.93
2019-04-25T06:30:04.364Z,27.03
2019-04-25T06:32:39.482Z,26.57
2019-04-25T06:35:14.259Z,22.83
2019-04-25T06:37:43.948Z,27.23
2019-04-25T06:40:14.024Z,33.03
2019-04-25T06:42:43.839Z,24.67
2019-04-25T06:45:34.443Z,58.43
2019-04-25T06:48:04.890Z,27.30
2019-04-25T06:50:35.533Z,23.73
2019-04-25T06:53:07.141Z,39.20
2019-04-25T06:55:35.989Z,25.13
2019-04-25T06:58:11.968Z,25.50
2019-04-25T07:00:42.614Z,24.17
2019-04-25T07:03:10.095Z,21.03
2019-04-25T07:05:40.455Z,67.10
2019-04-25T07:08:09.114Z,23.73
2019-04-25T07:10:37.756Z,21.73
2019-04-25T07:13:09.562Z,29.37
2019-04-25T07:15:38.329Z,22.87
2019-04-25T07:18:08.336Z,53.00
2019-04-25T07:20:40.101Z,22.27
2019-04-25T07:23:08.983Z,26.47
2019-04-25T07:25:39.384Z,33.33
2019-04-25T07:28:24.099Z,37.27
2019-04-25T07:30:57.551Z,29.83
2019-04-25T07:33:29.525Z,23.73
2019-04-25T07:36:01.591Z,22.63
2019-04-25T07:38:34.028Z,19.73
2019-04-25T07:41:03.869Z,24.60
2019-04-25T07:43:38.571Z,24.43
2019-04-25T07:46:14.692Z,42.43
2019-04-25T07:48:43.931Z,21.52
2019-04-25T07:51:16.181Z,25.20
2019-04-25T07:53:43.648Z,28.25
2019-04-25T07:56:14.177Z,24.50
2019-04-25T07:58:50.582Z,22.77
2019-04-25T08:01:15.210Z,40.45
2019-04-25T08:03:44.188Z,27.50
2019-04-25T08:06:13.799Z,23.07
2019-04-25T08:08:43.670Z,19.40
2019-04-25T08:11:18.773Z,18.55
2019-04-25T08:14:04.199Z,19.32
2019-04-25T08:16:35.635Z,20.30
2019-04-25T08:19:07.797Z,16.73
2019-04-25T08:21:39.560Z,19.52
2019-04-25T08:24:08.229Z,18.32
2019-04-25T08:26:37.586Z,20.75
2019-04-25T08:29:09.030Z,21.68
2019-04-25T08:31:37.800Z,16.93
2019-04-25T08:34:14.466Z,16.95
2019-04-25T08:36:40.227Z,16.25
2019-04-25T08:39:11.133Z,27.13
2019-04-25T08:41:39.892Z,16.17
2019-04-25T08:44:08.776Z,13.05
2019-04-25T08:46:38.502Z,17.98
2019-04-25T08:49:14.001Z,15.93
2019-04-25T08:51:44.583Z,15.53
2019-04-25T08:54:26.726Z,14.98
2019-04-25T08:56:57.049Z,11.85
2019-04-25T08:59:47.238Z,19.90
2019-04-25T09:02:20.382Z,11.22
2019-04-25T09:04:56.246Z,17.20
2019-04-25T09:07:24.946Z,14.47
2019-04-25T09:09:56.875Z,13.68
2019-04-25T09:12:26.004Z,15.35
2019-04-25T09:14:54.725Z,11.50
2019-04-25T09:17:24.302Z,14.05
2019-04-25T09:19:54.298Z,12.98
2019-04-25T09:22:26.465Z,23.27
2019-04-25T09:24:55.683Z,18.82
2019-04-25T09:27:24.223Z,15.10
2019-04-25T09:29:55.718Z,14.60
2019-04-25T09:32:24.356Z,16.52
2019-04-25T09:34:54.429Z,15.45
2019-04-25T09:37:24.625Z,15.08
2019-04-25T09:39:55.824Z,11.88
2019-04-25T09:42:24.550Z,17.98
2019-04-25T09:45:00.888Z,18.75
2019-04-25T09:47:29.589Z,20.02
2019-04-25T09:49:58.492Z,26.05
2019-04-25T09:52:27.313Z,16.95
2019-04-25T09:54:57.585Z,22.22
2019-04-25T09:57:40.931Z,17.75
2019-04-25T10:00:13.349Z,20.25
2019-04-25T10:02:47.666Z,20.30
2019-04-25T10:05:16.280Z,21.95
2019-04-25T10:07:48.971Z,33.95
2019-04-25T10:10:17.611Z,16.30
2019-04-25T10:12:47.424Z,24.40
2019-04-25T10:15:43.005Z,17.00
2019-04-25T10:18:14.234Z,23.87
2019-04-25T10:20:43.492Z,21.20
2019-04-25T10:23:15.425Z,23.35
2019-04-25T10:25:45.018Z,32.00
2019-04-25T10:28:13.813Z,26.10
2019-04-25T10:30:43.009Z,25.77
2019-04-25T10:33:14.224Z,21.87
2019-04-25T10:35:50.806Z,22.35
2019-04-25T10:38:14.658Z,17.80
2019-04-25T10:40:46.492Z,20.95
2019-04-25T10:43:16.210Z,18.70
2019-04-25T10:45:46.310Z,18.60
2019-04-25T10:48:15.950Z,13.48
2019-04-25T10:50:45.871Z,22.45
2019-04-25T10:53:15.232Z,13.45
2019-04-25T10:55:45.457Z,17.85
2019-04-25T10:58:14.281Z,16.70
2019-04-25T11:00:46.196Z,13.22
2019-04-25T11:03:36.096Z,14.43
2019-04-25T11:06:06.707Z,21.93
2019-04-25T11:08:38.204Z,14.70
2019-04-25T11:11:06.935Z,10.28
2019-04-25T11:13:36.135Z,13.93
2019-04-25T11:16:06.383Z,18.17
2019-04-25T11:18:37.558Z,20.00
2019-04-25T11:21:06.233Z,16.52
2019-04-25T11:23:34.897Z,14.23
2019-04-25T11:26:03.916Z,16.20
2019-04-25T11:28:33.769Z,20.45
2019-04-25T11:31:03.867Z,12.65
2019-04-25T11:33:33.790Z,17.82
2019-04-25T11:36:04.099Z,12.55
2019-04-25T11:38:49.481Z,23.70
2019-04-25T11:41:19.701Z,17.67
2019-04-25T11:43:48.719Z,17.07
2019-04-25T11:46:17.920Z,15.63
2019-04-25T11:48:46.546Z,14.47
2019-04-25T11:51:19.902Z,18.00
2019-04-25T11:53:50.052Z,19.48
2019-04-25T11:56:18.693Z,14.90
2019-04-25T11:58:48.102Z,20.12
2019-04-25T12:01:17.803Z,16.97
2019-04-25T12:03:48.666Z,35.65
2019-04-25T12:06:16.964Z,22.20
2019-04-25T12:08:46.811Z,14.90
2019-04-25T12:11:18.798Z,27.25
2019-04-25T12:13:48.109Z,25.52
2019-04-25T12:16:17.479Z,20.35
2019-04-25T12:18:48.804Z,34.63
2019-04-25T12:21:16.645Z,22.27
2019-04-25T12:23:47.367Z,34.23
2019-04-25T12:26:15.546Z,24.65
2019-04-25T12:28:44.983Z,21.07
2019-04-25T12:31:14.822Z,18.50
2019-04-25T12:33:48.600Z,31.90
2019-04-25T12:36:17.026Z,26.55
2019-04-25T12:38:46.123Z,16.12
2019-04-25T12:41:14.835Z,19.35
2019-04-25T12:43:45.767Z,19.55
2019-04-25T12:46:34.856Z,20.40
2019-04-25T12:49:03.750Z,18.17
2019-04-25T12:51:35.086Z,12.47
2019-04-25T12:54:03.944Z,15.45
2019-04-25T12:56:34.117Z,13.43
2019-04-25T12:59:02.691Z,14.10
2019-04-25T13:01:31.270Z,22.40
2019-04-25T13:03:59.865Z,16.15
2019-04-25T13:06:28.466Z,15.35
2019-04-25T13:08:57.099Z,17.50
2019-04-25T13:11:25.709Z,12.20
2019-04-25T13:13:54.199Z,42.10
2019-04-25T13:16:25.417Z,13.68
2019-04-25T13:18:54.019Z,15.50
2019-04-25T13:21:23.473Z,10.55
2019-04-25T13:23:52.059Z,16.20
2019-04-25T13:26:24.675Z,12.70
2019-04-25T13:28:54.322Z,11.63
2019-04-25T13:31:40.703Z,15.80
2019-04-25T13:34:35.380Z,11.88
2019-04-25T13:36:54.185Z,11.30
2019-04-25T13:39:24.169Z,8.45
2019-04-25T13:41:54.336Z,26.62
2019-04-25T13:44:26.211Z,9.73
2019-04-25T13:46:54.817Z,13.48
2019-04-25T13:49:23.464Z,13.45
2019-04-25T13:51:52.092Z,12.33
2019-04-25T13:54:20.884Z,19.15
2019-04-25T13:56:50.443Z,11.63
2019-04-25T13:59:19.075Z,17.27
2019-04-25T14:01:48.659Z,15.48
2019-04-25T14:04:20.771Z,13.43
2019-04-25T14:06:49.386Z,22.53
2019-04-25T14:09:18.203Z,14.63
2019-04-25T14:11:46.853Z,16.65
2019-04-25T14:14:15.567Z,16.85
2019-04-25T14:17:02.999Z,15.28
2019-04-25T14:19:38.715Z,25.02
2019-04-25T14:22:10.370Z,20.17
2019-04-25T14:24:39.003Z,17.87
2019-04-25T14:27:14.697Z,18.63
2019-04-25T14:29:43.729Z,19.80
2019-04-25T14:32:15.607Z,23.30
2019-04-25T14:34:44.229Z,20.45
2019-04-25T14:37:12.885Z,12.93
2019-04-25T14:39:41.509Z,23.70
2019-04-25T14:42:10.346Z,18.98
2019-04-25T14:44:38.933Z,14.33
2019-04-25T14:47:07.625Z,15.45
2019-04-25T14:49:36.252Z,17.15
2019-04-25T14:52:04.924Z,15.83
2019-04-25T14:54:36.085Z,12.00
2019-04-25T14:57:07.220Z,15.53
2019-04-25T14:59:35.967Z,118.77
2019-04-25T15:02:04.856Z,17.67
2019-04-25T15:04:33.482Z,18.17
2019-04-25T15:07:02.147Z,9.83
2019-04-25T15:09:31.075Z,19.05
2019-04-25T15:11:59.644Z,16.93
2019-04-25T15:14:29.233Z,19.25
2019-04-25T15:16:57.988Z,18.67
2019-04-25T15:19:27.519Z,23.32
2019-04-25T15:21:56.191Z,24.72
2019-04-25T15:24:25.108Z,17.37
2019-04-25T15:26:53.790Z,18.98
2019-04-25T15:29:22.344Z,27.90
2019-04-25T15:31:56.131Z,21.82
2019-04-25T15:34:22.917Z,20.90
2019-04-25T15:37:01.871Z,22.42
2019-04-25T15:39:47.262Z,15.68
2019-04-25T15:42:17.573Z,14.35
2019-04-25T15:45:05.969Z,14.23
2019-04-25T15:47:34.631Z,23.50
2019-04-25T15:50:04.831Z,20.82
2019-04-25T15:52:33.805Z,23.70
2019-04-25T15:55:07.285Z,20.52
2019-04-25T15:57:35.587Z,13.90
2019-04-25T16:00:08.158Z,18.00
2019-04-25T16:02:36.788Z,13.73
2019-04-25T16:05:07.530Z,19.73
2019-04-25T16:07:36.232Z,18.17
2019-04-25T16:10:07.572Z,14.83
2019-04-25T16:12:36.060Z,21.27
2019-04-25T16:15:06.589Z,12.90
2019-04-25T16:17:35.308Z,16.73
2019-04-25T16:20:05.036Z,22.43
2019-04-25T16:22:34.403Z,18.97
2019-04-25T16:25:03.728Z,20.87
2019-04-25T16:27:32.644Z,25.27
2019-04-25T16:30:01.383Z,38.83
2019-04-25T16:32:30.418Z,29.00
2019-04-25T16:34:59.104Z,19.00
2019-04-25T16:37:27.991Z,39.70
2019-04-25T16:39:57.670Z,28.70
2019-04-25T16:42:26.307Z,38.27
2019-04-25T16:44:55.154Z,41.23
2019-04-25T16:47:25.495Z,24.77
2019-04-25T16:49:54.106Z,20.83
2019-04-25T16:52:27.471Z,25.83
2019-04-25T16:54:56.108Z,26.80
2019-04-25T16:57:24.733Z,20.40
2019-04-25T16:59:53.353Z,52.80
2019-04-25T17:02:33.019Z,22.53
2019-04-25T17:04:53.914Z,33.80
2019-04-25T17:07:22.540Z,25.60
2019-04-25T17:09:53.885Z,31.03
2019-04-25T17:12:25.543Z,27.80
2019-04-25T17:15:05.046Z,27.57
2019-04-25T17:17:38.103Z,23.07
2019-04-25T17:20:10.365Z,25.90
2019-04-25T17:22:41.963Z,29.47
2019-04-25T17:25:11.355Z,27.37
2019-04-25T17:27:40.082Z,28.83
2019-04-25T17:30:09.465Z,25.10
2019-04-25T17:32:50.377Z,27.17
2019-04-25T17:35:11.958Z,26.20
2019-04-25T17:37:44.625Z,33.40
2019-04-25T17:40:17.658Z,27.27
2019-04-25T17:42:46.306Z,36.80
2019-04-25T17:45:19.400Z,39.00
2019-04-25T17:47:54.551Z,26.97
2019-04-25T17:50:18.312Z,31.03
2019-04-25T17:52:46.919Z,37.77
2019-04-25T17:55:15.557Z,37.33
2019-04-25T17:57:44.969Z,50.17
2019-04-25T18:00:17.185Z,44.70
2019-04-25T18:02:45.865Z,41.93
2019-04-25T18:05:14.494Z,37.37
2019-04-25T18:07:43.071Z,35.60
2019-04-25T18:10:13.119Z,31.57
2019-04-25T18:12:42.211Z,37.43
2019-04-25T18:15:12.619Z,41.13
2019-04-25T18:17:41.118Z,46.70
2019-04-25T18:20:11.505Z,45.57
2019-04-25T18:22:41.817Z,52.63
2019-04-25T18:25:15.144Z,44.10
2019-04-25T18:27:46.276Z,39.10
2019-04-25T18:30:15.068Z,47.93
2019-04-25T18:32:45.362Z,56.97
2019-04-25T18:35:15.635Z,70.07
2019-04-25T18:37:45.877Z,38.30
2019-04-25T18:40:18.911Z,33.70
2019-04-25T18:43:01.136Z,41.33
2019-04-25T18:45:31.273Z,29.63
2019-04-25T18:47:59.780Z,32.80
2019-04-25T18:50:29.982Z,33.30
2019-04-25T18:53:00.245Z,36.17
2019-04-25T18:55:31.579Z,35.20
2019-04-25T18:58:04.673Z,35.00
2019-04-25T19:00:52.810Z,28.37
2019-04-25T19:03:39.444Z,49.50
2019-04-25T19:06:12.671Z,31.47
2019-04-25T19:08:41.192Z,37.70
2019-04-25T19:11:09.897Z,29.03
2019-04-25T19:13:38.810Z,28.10
2019-04-25T19:16:08.318Z,29.53
2019-04-25T19:18:36.950Z,25.07
2019-04-25T19:21:06.094Z,25.07
2019-04-25T19:23:34.822Z,30.60
2019-04-25T19:26:03.394Z,29.40
2019-04-25T19:28:32.066Z,28.83
2019-04-25T19:31:00.760Z,30.00
2019-04-25T19:33:35.616Z,45.10
2019-04-25T19:35:59.657Z,39.57
2019-04-25T19:38:28.286Z,56.43
2019-04-25T19:41:07.533Z,40.60
2019-04-25T19:43:37.825Z,44.17
2019-04-25T19:46:06.474Z,35.17
2019-04-25T19:48:35.125Z,36.07
2019-04-25T19:51:03.841Z,28.63
2019-04-25T19:53:32.492Z,32.43
2019-04-25T19:56:04.190Z,23.87
2019-04-25T19:58:32.769Z,28.33
2019-04-25T20:01:01.415Z,23.97
2019-04-25T20:03:52.264Z,27.60
2019-04-25T20:06:18.706Z,25.67
2019-04-25T20:08:48.979Z,36.33
2019-04-25T20:11:19.191Z,61.80
2019-04-25T20:13:47.756Z,53.53
2019-04-25T20:16:16.437Z,39.60
2019-04-25T20:18:45.659Z,32.07
2019-04-25T20:21:14.320Z,29.23
2019-04-25T20:23:43.784Z,25.80
2019-04-25T20:26:13.330Z,32.60
2019-04-25T20:28:41.911Z,38.47
2019-04-25T20:31:10.547Z,28.33
2019-04-25T20:33:39.186Z,29.53
2019-04-25T20:36:17.221Z,30.20
2019-04-25T20:38:38.086Z,26.30
2019-04-25T20:41:06.769Z,27.77
2019-04-25T20:43:35.380Z,32.70
2019-04-25T20:46:04.018Z,30.93
2019-04-25T20:48:32.586Z,39.00
2019-04-25T20:51:01.261Z,35.10
2019-04-25T20:53:29.830Z,38.90
2019-04-25T20:55:58.502Z,40.47
2019-04-25T20:58:27.066Z,53.17
2019-04-25T21:00:57.947Z,63.67
2019-04-25T21:03:26.616Z,61.10
2019-04-25T21:05:57.233Z,63.47
2019-04-25T21:08:25.858Z,53.70
2019-04-25T21:10:54.426Z,56.63
2019-04-25T21:13:24.710Z,46.93
2019-04-25T21:16:03.462Z,61.67
2019-04-25T21:18:36.446Z,44.20
2019-04-25T21:21:05.077Z,44.63
2019-04-25T21:23:36.354Z,43.30
2019-04-25T21:26:04.995Z,46.03
2019-04-25T21:28:33.560Z,45.07
2019-04-25T21:31:03.185Z,43.53
2019-04-25T21:33:32.010Z,46.27
2019-04-25T21:36:03.600Z,43.10
2019-04-25T21:38:32.610Z,43.23
2019-04-25T21:41:06.044Z,55.57
2019-04-25T21:43:42.663Z,42.93
2019-04-25T21:46:13.598Z,44.53
2019-04-25T21:48:42.675Z,36.97
2019-04-25T21:51:28.894Z,33.00
2019-04-25T21:53:57.748Z,30.77
2019-04-25T21:56:29.153Z,32.73
2019-04-25T21:58:57.824Z,30.57
2019-04-25T22:01:35.516Z,28.07
2019-04-25T22:04:06.037Z,35.03
2019-04-25T22:06:35.061Z,37.23
2019-04-25T22:09:06.884Z,40.57
2019-04-25T22:11:35.661Z,35.80
2019-04-25T22:14:05.434Z,33.10
2019-04-25T22:16:34.400Z,31.23
2019-04-25T22:19:06.405Z,36.17
2019-04-25T22:21:38.265Z,31.43
2019-04-25T22:24:12.814Z,30.20
2019-04-25T22:26:36.122Z,26.20
2019-04-25T22:29:05.522Z,26.00
2019-04-25T22:31:35.865Z,32.77
2019-04-25T22:34:18.011Z,27.10
2019-04-25T22:36:46.924Z,26.57
2019-04-25T22:39:15.603Z,25.13
2019-04-25T22:41:47.015Z,28.37
2019-04-25T22:44:17.868Z,26.93
2019-04-25T22:46:46.802Z,23.07
2019-04-25T22:49:15.446Z,25.13
2019-04-25T22:51:44.111Z,28.13
2019-04-25T22:54:13.329Z,26.10
2019-04-25T22:56:42.016Z,31.03
2019-04-25T22:59:11.102Z,32.20
2019-04-25T23:01:50.253Z,29.20
2019-04-25T23:04:35.737Z,33.53
2019-04-25T23:07:04.452Z,31.57
2019-04-25T23:09:34.667Z,31.47
2019-04-25T23:12:03.915Z,31.53
2019-04-25T23:14:33.658Z,29.17
2019-04-25T23:17:05.101Z,29.90
2019-04-25T23:19:34.693Z,32.67
2019-04-25T23:22:04.768Z,30.87
2019-04-25T23:24:35.305Z,31.00
2019-04-25T23:27:06.330Z,28.70
2019-04-25T23:29:34.900Z,31.17
2019-04-25T23:32:04.035Z,43.27
2019-04-25T23:34:32.945Z,31.47
2019-04-25T23:37:03.506Z,29.73
2019-04-25T23:39:32.001Z,32.27
2019-04-25T23:42:00.661Z,40.53
2019-04-25T23:44:29.164Z,35.40
2019-04-25T23:46:58.013Z,45.20
2019-04-25T23:49:26.583Z,47.73
2019-04-25T23:51:55.435Z,55.67
2019-04-25T23:54:24.110Z,56.10
2019-04-25T23:56:52.746Z,57.57
2019-04-25T23:59:21.322Z,55.50
